createdAt,value
2023-03-12T00:07:59.782Z,20.80
2023-03-12T00:18:07.399Z,17.90
2023-03-12T00:28:14.602Z,25.10
2023-03-12T00:38:22.879Z,21.40
2023-03-12T00:48:30.550Z,14.30
2023-03-12T00:58:36.614Z,16.00
2023-03-12T01:08:43.929Z,22.40
2023-03-12T01:18:51.037Z,19.00
2023-03-12T01:28:58.010Z,22.70
2023-03-12T01:39:05.638Z,17.50
2023-03-12T01:49:15.688Z,19.20
2023-03-12T01:59:24.538Z,18.60
2023-03-12T02:09:33.960Z,14.70
2023-03-12T02:29:47.928Z,17.30
2023-03-12T02:39:53.356Z,20.80
2023-03-12T02:50:00.418Z,22.50
2023-03-12T03:00:12.340Z,17.40
2023-03-12T03:10:18.722Z,16.40
2023-03-12T03:20:27.021Z,20.30
2023-03-12T03:30:34.470Z,20.00
2023-03-12T03:40:41.593Z,19.30
2023-03-12T03:50:49.330Z,19.80
2023-03-12T04:00:57.240Z,18.30
2023-03-12T04:11:08.138Z,14.20
2023-03-12T04:21:16.626Z,21.70
2023-03-12T04:31:23.943Z,18.30
2023-03-12T04:41:31.327Z,13.90
2023-03-12T04:51:37.789Z,12.60
2023-03-12T05:01:45.199Z,16.30
2023-03-12T05:11:52.182Z,18.50
2023-03-12T05:21:59.339Z,20.30
2023-03-12T05:32:05.792Z,15.90
2023-03-12T05:42:12.884Z,10.30
2023-03-12T05:52:19.866Z,14.10
2023-03-12T06:02:27.076Z,17.10
2023-03-12T06:12:34.460Z,16.00
2023-03-12T06:22:41.880Z,9.50
2023-03-12T06:32:49.022Z,17.60
2023-03-12T06:42:56.239Z,28.30
2023-03-12T06:53:03.303Z,11.30
2023-03-12T07:03:10.701Z,11.70
2023-03-12T07:13:18.108Z,9.60
2023-03-12T07:23:25.886Z,6.30
2023-03-12T07:33:33.328Z,10.70
2023-03-12T07:43:40.828Z,15.50
2023-03-12T07:53:49.069Z,7.90
2023-03-12T08:03:56.245Z,12.10
2023-03-12T08:14:03.961Z,10.50
2023-03-12T08:24:08.975Z,10.30
2023-03-12T08:34:15.960Z,12.90
2023-03-12T08:44:23.179Z,9.60
2023-03-12T08:54:30.653Z,7.70
2023-03-12T09:04:37.788Z,7.60
2023-03-12T09:25:14.312Z,7.70
2023-03-12T09:35:21.804Z,8.80
2023-03-12T09:45:28.994Z,6.70
2023-03-12T09:55:38.291Z,10.70
2023-03-12T10:05:47.205Z,9.40
2023-03-12T10:15:56.980Z,12.90
2023-03-12T10:26:05.960Z,4.50
2023-03-12T10:36:16.899Z,5.80
2023-03-12T10:46:51.759Z,4.40
2023-03-12T10:56:59.302Z,5.20
2023-03-12T11:07:08.542Z,3.50
2023-03-12T11:17:21.234Z,5.70
2023-03-12T11:27:28.660Z,7.70
2023-03-12T11:37:38.154Z,6.90
2023-03-12T11:47:49.973Z,7.20
2023-03-12T11:57:59.057Z,8.60
2023-03-12T12:08:25.206Z,8.30
2023-03-12T12:18:41.651Z,13.10
2023-03-12T12:29:09.280Z,7.50
2023-03-12T12:39:14.338Z,6.30
2023-03-12T12:49:27.455Z,4.20
2023-03-12T12:59:34.449Z,10.90
2023-03-12T13:09:44.862Z,7.30
2023-03-12T13:19:55.748Z,5.00
2023-03-12T13:30:38.812Z,7.20
2023-03-12T13:41:03.310Z,5.80
2023-03-12T13:51:18.303Z,11.90
2023-03-12T14:01:32.535Z,7.80
2023-03-12T14:11:48.549Z,13.00
2023-03-12T14:21:58.134Z,4.70
2023-03-12T14:32:14.254Z,14.70
2023-03-12T14:42:26.563Z,16.70
2023-03-12T14:52:32.887Z,12.30
2023-03-12T15:02:40.897Z,16.70
2023-03-12T15:12:49.960Z,11.40
2023-03-12T15:22:58.563Z,15.20
2023-03-12T15:33:12.805Z,11.40
2023-03-12T15:43:17.948Z,17.90
2023-03-12T15:53:25.895Z,15.40
2023-03-12T16:03:33.159Z,53.70
2023-03-12T16:13:42.223Z,19.40
2023-03-12T16:23:50.101Z,16.50
2023-03-12T16:33:57.471Z,29.00
2023-03-12T16:44:08.191Z,40.60
2023-03-12T16:54:15.685Z,35.10
2023-03-12T17:14:32.151Z,31.70
2023-03-12T17:24:40.086Z,36.60
2023-03-12T17:34:47.504Z,36.40
2023-03-12T17:44:54.842Z,31.60
2023-03-12T17:55:02.154Z,30.60
2023-03-12T18:05:08.226Z,34.30
2023-03-12T18:15:16.982Z,32.70
2023-03-12T18:25:24.326Z,31.30
2023-03-12T18:35:31.937Z,30.10
2023-03-12T18:45:42.510Z,27.50
2023-03-12T18:55:52.073Z,33.50
2023-03-12T19:06:02.603Z,37.40
2023-03-12T19:16:08.630Z,29.90
2023-03-12T19:26:16.271Z,52.60
2023-03-12T19:36:23.579Z,41.10
2023-03-12T19:46:31.549Z,41.70
2023-03-12T19:56:38.996Z,40.70
2023-03-12T20:06:44.233Z,35.60
2023-03-12T20:16:51.573Z,40.30
2023-03-12T20:26:58.847Z,41.60
2023-03-12T20:37:06.051Z,45.00
2023-03-12T20:47:13.376Z,33.00
2023-03-12T20:57:20.659Z,41.10
2023-03-12T21:07:27.988Z,47.50
2023-03-12T21:17:34.266Z,41.40
2023-03-12T21:27:50.534Z,41.10
2023-03-12T21:37:59.194Z,41.20
2023-03-12T21:48:06.671Z,32.40
2023-03-12T21:58:13.826Z,25.80
2023-03-12T22:08:20.947Z,25.80
2023-03-12T22:18:29.432Z,25.20
2023-03-12T22:28:37.155Z,24.00
2023-03-12T22:38:45.032Z,20.20
2023-03-12T22:48:56.505Z,22.00
2023-03-12T22:59:03.532Z,24.80
2023-03-12T23:09:10.890Z,18.00
2023-03-12T23:19:16.943Z,18.60
2023-03-12T23:29:24.368Z,14.70
2023-03-12T23:39:35.361Z,9.40
2023-03-12T23:49:46.545Z,10.10
2023-03-12T23:59:53.905Z,14.20
